sensor_id;sensor_type;location;lat;lon;timestamp;P1;durP1;ratioP1;P2;durP2;ratioP2
55915;SDS011;41826;53.246;-6.670;2022-07-24T00:00:19;13.88;;;4.40;;
55915;SDS011;41826;53.246;-6.670;2022-07-24T00:02:44;12.00;;;4.53;;
55915;SDS011;41826;53.246;-6.670;2022-07-24T00:05:10;16.13;;;6.65;;
55915;SDS011;41826;53.246;-6.670;2022-07-24T00:07:36;15.30;;;5.80;;
55915;SDS011;41826;53.246;-6.670;2022-07-24T00:10:03;11.32;;;5.13;;
55915;SDS011;41826;53.246;-6.670;2022-07-24T00:12:29;10.57;;;4.88;;
55915;SDS011;41826;53.246;-6.670;2022-07-24T00:14:55;14.25;;;5.32;;
55915;SDS011;41826;53.246;-6.670;2022-07-24T00:17:20;10.85;;;4.57;;
55915;SDS011;41826;53.246;-6.670;2022-07-24T00:19:46;8.85;;;4.57;;
55915;SDS011;41826;53.246;-6.670;2022-07-24T00:22:11;10.77;;;4.22;;
55915;SDS011;41826;53.246;-6.670;2022-07-24T00:24:40;15.23;;;4.68;;
55915;SDS011;41826;53.246;-6.670;2022-07-24T00:27:05;8.85;;;4.57;;
55915;SDS011;41826;53.246;-6.670;2022-07-24T00:29:31;9.57;;;4.43;;
55915;SDS011;41826;53.246;-6.670;2022-07-24T00:31:56;11.98;;;4.53;;
55915;SDS011;41826;53.246;-6.670;2022-07-24T00:34:22;9.75;;;4.50;;
55915;SDS011;41826;53.246;-6.670;2022-07-24T00:36:47;11.15;;;4.47;;
55915;SDS011;41826;53.246;-6.670;2022-07-24T00:39:13;10.77;;;5.00;;
55915;SDS011;41826;53.246;-6.670;2022-07-24T00:41:38;17.85;;;5.28;;
55915;SDS011;41826;53.246;-6.670;2022-07-24T00:44:05;9.43;;;4.65;;
55915;SDS011;41826;53.246;-6.670;2022-07-24T00:46:38;8.90;;;4.43;;
55915;SDS011;41826;53.246;-6.670;2022-07-24T00:49:15;7.88;;;4.55;;
55915;SDS011;41826;53.246;-6.670;2022-07-24T00:51:43;5.18;;;4.07;;
55915;SDS011;41826;53.246;-6.670;2022-07-24T00:54:11;9.07;;;3.78;;
55915;SDS011;41826;53.246;-6.670;2022-07-24T00:56:38;6.90;;;4.40;;
55915;SDS011;41826;53.246;-6.670;2022-07-24T00:59:05;7.88;;;4.30;;
55915;SDS011;41826;53.246;-6.670;2022-07-24T01:01:31;11.38;;;4.72;;
55915;SDS011;41826;53.246;-6.670;2022-07-24T01:04:06;11.57;;;4.18;;
55915;SDS011;41826;53.246;-6.670;2022-07-24T01:06:41;9.20;;;3.83;;
55915;SDS011;41826;53.246;-6.670;2022-07-24T01:09:07;7.88;;;4.20;;
55915;SDS011;41826;53.246;-6.670;2022-07-24T01:11:33;14.15;;;3.80;;
55915;SDS011;41826;53.246;-6.670;2022-07-24T01:13:58;10.88;;;3.83;;
55915;SDS011;41826;53.246;-6.670;2022-07-24T01:16:34;6.90;;;3.40;;
55915;SDS011;41826;53.246;-6.670;2022-07-24T01:18:59;3.50;;;3.10;;
55915;SDS011;41826;53.246;-6.670;2022-07-24T01:21:25;5.97;;;3.33;;
55915;SDS011;41826;53.246;-6.670;2022-07-24T01:23:50;6.85;;;2.92;;
55915;SDS011;41826;53.246;-6.670;2022-07-24T01:26:16;6.53;;;2.95;;
55915;SDS011;41826;53.246;-6.670;2022-07-24T01:28:41;5.05;;;3.53;;
55915;SDS011;41826;53.246;-6.670;2022-07-24T01:31:16;5.63;;;3.10;;
55915;SDS011;41826;53.246;-6.670;2022-07-24T01:33:50;8.40;;;3.30;;
55915;SDS011;41826;53.246;-6.670;2022-07-24T01:36:15;6.35;;;2.88;;
55915;SDS011;41826;53.246;-6.670;2022-07-24T01:38:43;4.18;;;2.90;;
55915;SDS011;41826;53.246;-6.670;2022-07-24T01:41:09;6.13;;;3.65;;
55915;SDS011;41826;53.246;-6.670;2022-07-24T01:43:35;8.35;;;3.13;;
55915;SDS011;41826;53.246;-6.670;2022-07-24T01:46:00;8.43;;;3.78;;
55915;SDS011;41826;53.246;-6.670;2022-07-24T01:48:36;5.97;;;2.95;;
55915;SDS011;41826;53.246;-6.670;2022-07-24T01:51:02;6.40;;;2.90;;
55915;SDS011;41826;53.246;-6.670;2022-07-24T01:53:28;6.95;;;3.20;;
55915;SDS011;41826;53.246;-6.670;2022-07-24T01:55:54;4.97;;;2.60;;
55915;SDS011;41826;53.246;-6.670;2022-07-24T01:58:19;4.45;;;2.78;;
55915;SDS011;41826;53.246;-6.670;2022-07-24T02:00:46;6.47;;;2.85;;
55915;SDS011;41826;53.246;-6.670;2022-07-24T02:03:11;4.97;;;2.90;;
55915;SDS011;41826;53.246;-6.670;2022-07-24T02:05:37;8.07;;;3.10;;
55915;SDS011;41826;53.246;-6.670;2022-07-24T02:08:02;7.38;;;3.22;;
55915;SDS011;41826;53.246;-6.670;2022-07-24T02:10:28;7.60;;;2.72;;
55915;SDS011;41826;53.246;-6.670;2022-07-24T02:12:55;4.95;;;3.22;;
55915;SDS011;41826;53.246;-6.670;2022-07-24T02:15:21;8.40;;;2.88;;
55915;SDS011;41826;53.246;-6.670;2022-07-24T02:17:47;6.03;;;3.33;;
55915;SDS011;41826;53.246;-6.670;2022-07-24T02:20:13;8.35;;;2.63;;
55915;SDS011;41826;53.246;-6.670;2022-07-24T02:22:39;6.45;;;3.00;;
55915;SDS011;41826;53.246;-6.670;2022-07-24T02:25:05;5.25;;;2.95;;
55915;SDS011;41826;53.246;-6.670;2022-07-24T02:27:34;9.30;;;2.90;;
55915;SDS011;41826;53.246;-6.670;2022-07-24T02:30:03;4.82;;;3.13;;
55915;SDS011;41826;53.246;-6.670;2022-07-24T02:32:33;4.18;;;2.90;;
55915;SDS011;41826;53.246;-6.670;2022-07-24T02:34:58;10.05;;;3.30;;
55915;SDS011;41826;53.246;-6.670;2022-07-24T02:37:24;9.35;;;2.88;;
55915;SDS011;41826;53.246;-6.670;2022-07-24T02:39:50;9.23;;;2.85;;
55915;SDS011;41826;53.246;-6.670;2022-07-24T02:42:15;8.50;;;3.20;;
55915;SDS011;41826;53.246;-6.670;2022-07-24T02:44:41;5.75;;;2.70;;
55915;SDS011;41826;53.246;-6.670;2022-07-24T02:47:06;6.93;;;3.03;;
55915;SDS011;41826;53.246;-6.670;2022-07-24T02:49:32;5.50;;;3.50;;
55915;SDS011;41826;53.246;-6.670;2022-07-24T02:51:57;7.30;;;2.88;;
55915;SDS011;41826;53.246;-6.670;2022-07-24T02:54:22;4.38;;;2.65;;
55915;SDS011;41826;53.246;-6.670;2022-07-24T02:56:48;4.57;;;2.15;;
55915;SDS011;41826;53.246;-6.670;2022-07-24T02:59:13;9.10;;;2.33;;
55915;SDS011;41826;53.246;-6.670;2022-07-24T03:01:39;7.15;;;2.58;;
55915;SDS011;41826;53.246;-6.670;2022-07-24T03:04:04;5.72;;;2.80;;
55915;SDS011;41826;53.246;-6.670;2022-07-24T03:06:30;5.05;;;2.35;;
55915;SDS011;41826;53.246;-6.670;2022-07-24T03:08:55;5.28;;;1.80;;
55915;SDS011;41826;53.246;-6.670;2022-07-24T03:11:20;6.10;;;2.08;;
55915;SDS011;41826;53.246;-6.670;2022-07-24T03:13:46;5.35;;;2.13;;
55915;SDS011;41826;53.246;-6.670;2022-07-24T03:16:12;6.45;;;2.45;;
55915;SDS011;41826;53.246;-6.670;2022-07-24T03:18:40;5.80;;;2.35;;
55915;SDS011;41826;53.246;-6.670;2022-07-24T03:21:06;4.60;;;2.50;;
55915;SDS011;41826;53.246;-6.670;2022-07-24T03:23:32;6.78;;;2.78;;
55915;SDS011;41826;53.246;-6.670;2022-07-24T03:25:57;10.05;;;3.30;;
55915;SDS011;41826;53.246;-6.670;2022-07-24T03:28:23;9.73;;;2.60;;
55915;SDS011;41826;53.246;-6.670;2022-07-24T03:30:48;8.45;;;2.92;;
55915;SDS011;41826;53.246;-6.670;2022-07-24T03:33:13;7.53;;;2.95;;
55915;SDS011;41826;53.246;-6.670;2022-07-24T03:35:39;11.57;;;3.15;;
55915;SDS011;41826;53.246;-6.670;2022-07-24T03:38:04;8.27;;;2.92;;
55915;SDS011;41826;53.246;-6.670;2022-07-24T03:40:29;10.73;;;3.28;;
55915;SDS011;41826;53.246;-6.670;2022-07-24T03:42:55;8.77;;;2.97;;
55915;SDS011;41826;53.246;-6.670;2022-07-24T03:45:32;5.93;;;2.95;;
55915;SDS011;41826;53.246;-6.670;2022-07-24T03:48:05;14.00;;;3.53;;
55915;SDS011;41826;53.246;-6.670;2022-07-24T03:50:31;12.30;;;3.17;;
55915;SDS011;41826;53.246;-6.670;2022-07-24T03:52:56;8.77;;;2.95;;
55915;SDS011;41826;53.246;-6.670;2022-07-24T03:55:22;6.18;;;3.55;;
55915;SDS011;41826;53.246;-6.670;2022-07-24T03:57:47;8.05;;;3.17;;
55915;SDS011;41826;53.246;-6.670;2022-07-24T04:00:33;13.40;;;3.42;;
55915;SDS011;41826;53.246;-6.670;2022-07-24T04:02:58;12.32;;;3.95;;
55915;SDS011;41826;53.246;-6.670;2022-07-24T04:05:30;13.60;;;3.47;;
55915;SDS011;41826;53.246;-6.670;2022-07-24T04:07:55;14.40;;;4.18;;
55915;SDS011;41826;53.246;-6.670;2022-07-24T04:10:20;10.73;;;3.25;;
55915;SDS011;41826;53.246;-6.670;2022-07-24T04:12:46;8.45;;;3.58;;
55915;SDS011;41826;53.246;-6.670;2022-07-24T04:15:11;12.77;;;3.38;;
55915;SDS011;41826;53.246;-6.670;2022-07-24T04:17:46;13.75;;;4.00;;
55915;SDS011;41826;53.246;-6.670;2022-07-24T04:20:14;8.13;;;3.28;;
55915;SDS011;41826;53.246;-6.670;2022-07-24T04:22:40;11.00;;;4.40;;
55915;SDS011;41826;53.246;-6.670;2022-07-24T04:25:06;7.15;;;3.22;;
55915;SDS011;41826;53.246;-6.670;2022-07-24T04:27:32;7.03;;;3.17;;
55915;SDS011;41826;53.246;-6.670;2022-07-24T04:30:06;8.80;;;3.35;;
55915;SDS011;41826;53.246;-6.670;2022-07-24T04:32:50;13.57;;;4.43;;
55915;SDS011;41826;53.246;-6.670;2022-07-24T04:35:15;14.70;;;4.90;;
55915;SDS011;41826;53.246;-6.670;2022-07-24T04:37:40;16.20;;;3.88;;
55915;SDS011;41826;53.246;-6.670;2022-07-24T04:40:06;18.50;;;4.18;;
55915;SDS011;41826;53.246;-6.670;2022-07-24T04:42:32;13.57;;;3.90;;
55915;SDS011;41826;53.246;-6.670;2022-07-24T04:45:03;13.52;;;3.55;;
55915;SDS011;41826;53.246;-6.670;2022-07-24T04:49:55;15.43;;;3.55;;
55915;SDS011;41826;53.246;-6.670;2022-07-24T04:52:21;16.27;;;4.32;;
55915;SDS011;41826;53.246;-6.670;2022-07-24T04:54:46;15.80;;;4.45;;
55915;SDS011;41826;53.246;-6.670;2022-07-24T04:57:12;12.32;;;4.22;;
55915;SDS011;41826;53.246;-6.670;2022-07-24T04:59:37;13.13;;;3.40;;
55915;SDS011;41826;53.246;-6.670;2022-07-24T05:02:03;16.40;;;4.35;;
55915;SDS011;41826;53.246;-6.670;2022-07-24T05:04:28;10.68;;;3.88;;
55915;SDS011;41826;53.246;-6.670;2022-07-24T05:06:54;9.73;;;3.55;;
55915;SDS011;41826;53.246;-6.670;2022-07-24T05:09:19;13.82;;;4.28;;
55915;SDS011;41826;53.246;-6.670;2022-07-24T05:11:45;17.23;;;3.75;;
55915;SDS011;41826;53.246;-6.670;2022-07-24T05:14:16;15.13;;;3.75;;
55915;SDS011;41826;53.246;-6.670;2022-07-24T05:16:41;15.15;;;3.50;;
55915;SDS011;41826;53.246;-6.670;2022-07-24T05:19:06;9.35;;;3.38;;
55915;SDS011;41826;53.246;-6.670;2022-07-24T05:21:32;12.75;;;4.15;;
55915;SDS011;41826;53.246;-6.670;2022-07-24T05:23:57;10.90;;;3.35;;
55915;SDS011;41826;53.246;-6.670;2022-07-24T05:26:26;15.52;;;3.13;;
55915;SDS011;41826;53.246;-6.670;2022-07-24T05:28:52;14.98;;;3.97;;
55915;SDS011;41826;53.246;-6.670;2022-07-24T05:31:17;15.02;;;4.18;;
55915;SDS011;41826;53.246;-6.670;2022-07-24T05:33:42;16.00;;;3.85;;
55915;SDS011;41826;53.246;-6.670;2022-07-24T05:36:08;15.15;;;4.22;;
55915;SDS011;41826;53.246;-6.670;2022-07-24T05:38:33;16.88;;;3.55;;
55915;SDS011;41826;53.246;-6.670;2022-07-24T05:41:09;10.43;;;2.97;;
55915;SDS011;41826;53.246;-6.670;2022-07-24T05:43:36;18.08;;;3.92;;
55915;SDS011;41826;53.246;-6.670;2022-07-24T05:46:01;13.18;;;3.60;;
55915;SDS011;41826;53.246;-6.670;2022-07-24T05:48:30;13.90;;;3.17;;
55915;SDS011;41826;53.246;-6.670;2022-07-24T05:50:58;13.00;;;3.42;;
55915;SDS011;41826;53.246;-6.670;2022-07-24T05:53:27;9.05;;;2.80;;
55915;SDS011;41826;53.246;-6.670;2022-07-24T05:55:52;9.25;;;3.25;;
55915;SDS011;41826;53.246;-6.670;2022-07-24T05:58:18;15.68;;;3.40;;
55915;SDS011;41826;53.246;-6.670;2022-07-24T06:00:44;15.77;;;2.92;;
55915;SDS011;41826;53.246;-6.670;2022-07-24T06:03:09;11.85;;;3.65;;
55915;SDS011;41826;53.246;-6.670;2022-07-24T06:05:35;13.32;;;3.15;;
55915;SDS011;41826;53.246;-6.670;2022-07-24T06:08:00;10.02;;;2.85;;
55915;SDS011;41826;53.246;-6.670;2022-07-24T06:10:26;9.00;;;3.10;;
55915;SDS011;41826;53.246;-6.670;2022-07-24T06:12:51;18.67;;;4.07;;
55915;SDS011;41826;53.246;-6.670;2022-07-24T06:15:20;17.33;;;3.55;;
55915;SDS011;41826;53.246;-6.670;2022-07-24T06:17:45;17.88;;;2.92;;
55915;SDS011;41826;53.246;-6.670;2022-07-24T06:20:14;13.88;;;3.53;;
55915;SDS011;41826;53.246;-6.670;2022-07-24T06:22:41;13.57;;;3.55;;
55915;SDS011;41826;53.246;-6.670;2022-07-24T06:25:07;15.30;;;3.70;;
55915;SDS011;41826;53.246;-6.670;2022-07-24T06:27:33;6.88;;;2.40;;
55915;SDS011;41826;53.246;-6.670;2022-07-24T06:30:01;16.15;;;3.75;;
55915;SDS011;41826;53.246;-6.670;2022-07-24T06:32:27;13.65;;;3.08;;
55915;SDS011;41826;53.246;-6.670;2022-07-24T06:34:52;12.15;;;3.00;;
55915;SDS011;41826;53.246;-6.670;2022-07-24T06:37:18;14.38;;;3.67;;
55915;SDS011;41826;53.246;-6.670;2022-07-24T06:39:43;8.80;;;3.47;;
55915;SDS011;41826;53.246;-6.670;2022-07-24T06:42:09;10.93;;;3.10;;
55915;SDS011;41826;53.246;-6.670;2022-07-24T06:44:34;10.13;;;2.92;;
55915;SDS011;41826;53.246;-6.670;2022-07-24T06:47:01;8.48;;;2.65;;
55915;SDS011;41826;53.246;-6.670;2022-07-24T06:49:26;10.45;;;3.10;;
55915;SDS011;41826;53.246;-6.670;2022-07-24T06:51:52;13.32;;;3.25;;
55915;SDS011;41826;53.246;-6.670;2022-07-24T06:54:17;13.98;;;3.08;;
55915;SDS011;41826;53.246;-6.670;2022-07-24T06:56:43;11.93;;;2.88;;
55915;SDS011;41826;53.246;-6.670;2022-07-24T06:59:10;12.85;;;3.00;;
55915;SDS011;41826;53.246;-6.670;2022-07-24T07:01:39;13.18;;;3.72;;
55915;SDS011;41826;53.246;-6.670;2022-07-24T07:04:04;12.68;;;3.45;;
55915;SDS011;41826;53.246;-6.670;2022-07-24T07:06:30;11.15;;;3.58;;
55915;SDS011;41826;53.246;-6.670;2022-07-24T07:08:55;15.25;;;3.28;;
55915;SDS011;41826;53.246;-6.670;2022-07-24T07:11:20;12.15;;;3.25;;
55915;SDS011;41826;53.246;-6.670;2022-07-24T07:13:46;10.02;;;2.63;;
55915;SDS011;41826;53.246;-6.670;2022-07-24T07:16:12;9.48;;;2.90;;
55915;SDS011;41826;53.246;-6.670;2022-07-24T07:18:37;12.32;;;3.10;;
55915;SDS011;41826;53.246;-6.670;2022-07-24T07:21:03;12.55;;;2.20;;
55915;SDS011;41826;53.246;-6.670;2022-07-24T07:23:29;5.88;;;2.30;;
55915;SDS011;41826;53.246;-6.670;2022-07-24T07:25:54;11.45;;;2.55;;
55915;SDS011;41826;53.246;-6.670;2022-07-24T07:28:20;11.50;;;2.60;;
55915;SDS011;41826;53.246;-6.670;2022-07-24T07:30:46;11.00;;;3.08;;
55915;SDS011;41826;53.246;-6.670;2022-07-24T07:33:15;10.38;;;3.05;;
55915;SDS011;41826;53.246;-6.670;2022-07-24T07:35:40;7.18;;;2.42;;
55915;SDS011;41826;53.246;-6.670;2022-07-24T07:38:06;7.22;;;2.47;;
55915;SDS011;41826;53.246;-6.670;2022-07-24T07:40:32;10.77;;;2.58;;
55915;SDS011;41826;53.246;-6.670;2022-07-24T07:42:57;10.10;;;2.85;;
55915;SDS011;41826;53.246;-6.670;2022-07-24T07:45:22;10.32;;;2.58;;
55915;SDS011;41826;53.246;-6.670;2022-07-24T07:47:48;8.20;;;3.28;;
55915;SDS011;41826;53.246;-6.670;2022-07-24T07:50:13;12.73;;;3.00;;
55915;SDS011;41826;53.246;-6.670;2022-07-24T07:52:39;11.48;;;3.90;;
55915;SDS011;41826;53.246;-6.670;2022-07-24T07:55:05;11.10;;;4.15;;
55915;SDS011;41826;53.246;-6.670;2022-07-24T07:57:31;11.20;;;4.07;;
55915;SDS011;41826;53.246;-6.670;2022-07-24T07:59:56;29.73;;;15.50;;
55915;SDS011;41826;53.246;-6.670;2022-07-24T08:02:22;18.55;;;7.55;;
55915;SDS011;41826;53.246;-6.670;2022-07-24T08:04:47;23.58;;;8.80;;
55915;SDS011;41826;53.246;-6.670;2022-07-24T08:07:12;47.38;;;24.23;;
55915;SDS011;41826;53.246;-6.670;2022-07-24T08:09:38;62.17;;;36.15;;
55915;SDS011;41826;53.246;-6.670;2022-07-24T08:12:04;13.50;;;7.05;;
55915;SDS011;41826;53.246;-6.670;2022-07-24T08:14:30;45.67;;;22.95;;
55915;SDS011;41826;53.246;-6.670;2022-07-24T08:16:55;22.50;;;12.85;;
55915;SDS011;41826;53.246;-6.670;2022-07-24T08:19:21;33.58;;;17.80;;
55915;SDS011;41826;53.246;-6.670;2022-07-24T08:21:46;23.30;;;9.52;;
55915;SDS011;41826;53.246;-6.670;2022-07-24T08:24:12;13.52;;;4.68;;
55915;SDS011;41826;53.246;-6.670;2022-07-24T08:26:37;20.20;;;9.15;;
55915;SDS011;41826;53.246;-6.670;2022-07-24T08:29:03;29.35;;;14.45;;
55915;SDS011;41826;53.246;-6.670;2022-07-24T08:31:29;13.93;;;4.93;;
55915;SDS011;41826;53.246;-6.670;2022-07-24T08:33:55;26.33;;;10.65;;
55915;SDS011;41826;53.246;-6.670;2022-07-24T08:36:20;18.73;;;7.90;;
55915;SDS011;41826;53.246;-6.670;2022-07-24T08:38:46;10.68;;;3.80;;
55915;SDS011;41826;53.246;-6.670;2022-07-24T08:41:12;10.05;;;3.65;;
55915;SDS011;41826;53.246;-6.670;2022-07-24T08:43:38;8.48;;;4.72;;
55915;SDS011;41826;53.246;-6.670;2022-07-24T08:46:03;13.10;;;4.18;;
55915;SDS011;41826;53.246;-6.670;2022-07-24T08:48:33;9.75;;;3.20;;
55915;SDS011;41826;53.246;-6.670;2022-07-24T08:50:59;12.00;;;3.92;;
55915;SDS011;41826;53.246;-6.670;2022-07-24T08:53:25;13.05;;;5.07;;
55915;SDS011;41826;53.246;-6.670;2022-07-24T08:55:50;8.43;;;3.63;;
55915;SDS011;41826;53.246;-6.670;2022-07-24T08:58:16;7.95;;;4.57;;
55915;SDS011;41826;53.246;-6.670;2022-07-24T09:00:42;12.43;;;3.42;;
55915;SDS011;41826;53.246;-6.670;2022-07-24T09:03:08;9.82;;;3.90;;
55915;SDS011;41826;53.246;-6.670;2022-07-24T09:05:56;7.07;;;2.65;;
55915;SDS011;41826;53.246;-6.670;2022-07-24T09:08:23;8.65;;;3.20;;
55915;SDS011;41826;53.246;-6.670;2022-07-24T09:10:59;6.50;;;3.15;;
55915;SDS011;41826;53.246;-6.670;2022-07-24T09:13:28;9.15;;;2.50;;
55915;SDS011;41826;53.246;-6.670;2022-07-24T09:16:16;7.63;;;2.55;;
55915;SDS011;41826;53.246;-6.670;2022-07-24T09:18:49;8.20;;;2.25;;
55915;SDS011;41826;53.246;-6.670;2022-07-24T09:21:17;7.00;;;2.53;;
55915;SDS011;41826;53.246;-6.670;2022-07-24T09:23:44;9.25;;;2.60;;
55915;SDS011;41826;53.246;-6.670;2022-07-24T09:26:10;6.75;;;2.53;;
55915;SDS011;41826;53.246;-6.670;2022-07-24T09:31:20;9.27;;;2.50;;
55915;SDS011;41826;53.246;-6.670;2022-07-24T09:33:47;9.35;;;2.78;;
55915;SDS011;41826;53.246;-6.670;2022-07-24T09:36:15;8.10;;;2.70;;
55915;SDS011;41826;53.246;-6.670;2022-07-24T09:38:49;7.60;;;2.60;;
55915;SDS011;41826;53.246;-6.670;2022-07-24T09:41:24;7.00;;;2.47;;
55915;SDS011;41826;53.246;-6.670;2022-07-24T09:44:00;9.63;;;2.58;;
55915;SDS011;41826;53.246;-6.670;2022-07-24T09:46:27;9.23;;;2.40;;
55915;SDS011;41826;53.246;-6.670;2022-07-24T09:48:54;6.32;;;2.70;;
55915;SDS011;41826;53.246;-6.670;2022-07-24T09:51:24;10.15;;;3.08;;
55915;SDS011;41826;53.246;-6.670;2022-07-24T09:53:55;4.93;;;2.28;;
55915;SDS011;41826;53.246;-6.670;2022-07-24T09:56:22;5.90;;;2.53;;
55915;SDS011;41826;53.246;-6.670;2022-07-24T09:58:52;6.70;;;2.58;;
55915;SDS011;41826;53.246;-6.670;2022-07-24T10:01:23;5.18;;;1.98;;
55915;SDS011;41826;53.246;-6.670;2022-07-24T10:03:53;8.15;;;2.97;;
55915;SDS011;41826;53.246;-6.670;2022-07-24T10:06:22;5.53;;;2.47;;
55915;SDS011;41826;53.246;-6.670;2022-07-24T10:08:51;6.78;;;2.50;;
55915;SDS011;41826;53.246;-6.670;2022-07-24T10:11:17;10.40;;;2.28;;
55915;SDS011;41826;53.246;-6.670;2022-07-24T10:13:43;7.38;;;2.83;;
55915;SDS011;41826;53.246;-6.670;2022-07-24T10:19:00;9.73;;;2.40;;
55915;SDS011;41826;53.246;-6.670;2022-07-24T10:21:29;8.57;;;2.35;;
55915;SDS011;41826;53.246;-6.670;2022-07-24T10:24:25;7.53;;;2.50;;
55915;SDS011;41826;53.246;-6.670;2022-07-24T10:26:54;5.75;;;3.00;;
55915;SDS011;41826;53.246;-6.670;2022-07-24T10:29:28;6.78;;;2.65;;
55915;SDS011;41826;53.246;-6.670;2022-07-24T10:31:56;8.05;;;2.33;;
55915;SDS011;41826;53.246;-6.670;2022-07-24T10:36:51;6.57;;;2.40;;
55915;SDS011;41826;53.246;-6.670;2022-07-24T10:39:26;5.80;;;2.25;;
55915;SDS011;41826;53.246;-6.670;2022-07-24T10:41:59;4.03;;;1.83;;
55915;SDS011;41826;53.246;-6.670;2022-07-24T10:44:45;4.80;;;2.15;;
55915;SDS011;41826;53.246;-6.670;2022-07-24T10:47:40;8.00;;;2.65;;
55915;SDS011;41826;53.246;-6.670;2022-07-24T10:50:05;3.85;;;2.15;;
55915;SDS011;41826;53.246;-6.670;2022-07-24T10:52:34;4.75;;;2.17;;
55915;SDS011;41826;53.246;-6.670;2022-07-24T11:00:33;5.07;;;1.83;;
55915;SDS011;41826;53.246;-6.670;2022-07-24T11:03:44;3.90;;;1.65;;
55915;SDS011;41826;53.246;-6.670;2022-07-24T11:06:56;6.75;;;3.35;;
55915;SDS011;41826;53.246;-6.670;2022-07-24T11:09:04;7.53;;;1.90;;
55915;SDS011;41826;53.246;-6.670;2022-07-24T11:11:29;7.13;;;1.98;;
55915;SDS011;41826;53.246;-6.670;2022-07-24T11:13:55;6.05;;;2.17;;
55915;SDS011;41826;53.246;-6.670;2022-07-24T11:16:30;6.18;;;2.10;;
55915;SDS011;41826;53.246;-6.670;2022-07-24T11:26:40;5.20;;;2.60;;
55915;SDS011;41826;53.246;-6.670;2022-07-24T11:31:47;4.28;;;1.90;;
55915;SDS011;41826;53.246;-6.670;2022-07-24T11:34:24;4.57;;;1.77;;
55915;SDS011;41826;53.246;-6.670;2022-07-24T11:36:51;2.85;;;1.98;;
55915;SDS011;41826;53.246;-6.670;2022-07-24T11:39:19;5.38;;;1.80;;
55915;SDS011;41826;53.246;-6.670;2022-07-24T11:42:33;5.38;;;1.40;;
55915;SDS011;41826;53.246;-6.670;2022-07-24T11:44:42;7.72;;;1.92;;
55915;SDS011;41826;53.246;-6.670;2022-07-24T11:47:13;3.05;;;1.63;;
55915;SDS011;41826;53.246;-6.670;2022-07-24T11:49:45;5.10;;;2.17;;
55915;SDS011;41826;53.246;-6.670;2022-07-24T11:52:15;6.53;;;1.80;;
55915;SDS011;41826;53.246;-6.670;2022-07-24T11:54:43;4.03;;;1.60;;
55915;SDS011;41826;53.246;-6.670;2022-07-24T11:57:18;2.60;;;1.73;;
55915;SDS011;41826;53.246;-6.670;2022-07-24T11:59:47;3.88;;;2.35;;
55915;SDS011;41826;53.246;-6.670;2022-07-24T12:02:13;3.30;;;1.85;;
55915;SDS011;41826;53.246;-6.670;2022-07-24T12:04:39;4.72;;;1.80;;
55915;SDS011;41826;53.246;-6.670;2022-07-24T12:07:10;6.47;;;1.80;;
55915;SDS011;41826;53.246;-6.670;2022-07-24T12:09:49;4.47;;;2.03;;
55915;SDS011;41826;53.246;-6.670;2022-07-24T12:12:26;4.43;;;2.03;;
55915;SDS011;41826;53.246;-6.670;2022-07-24T12:15:01;3.13;;;1.80;;
55915;SDS011;41826;53.246;-6.670;2022-07-24T12:17:30;3.83;;;1.83;;
55915;SDS011;41826;53.246;-6.670;2022-07-24T12:19:58;4.38;;;1.85;;
55915;SDS011;41826;53.246;-6.670;2022-07-24T12:22:25;6.70;;;1.92;;
55915;SDS011;41826;53.246;-6.670;2022-07-24T12:24:53;3.95;;;1.83;;
55915;SDS011;41826;53.246;-6.670;2022-07-24T12:27:32;4.57;;;1.80;;
55915;SDS011;41826;53.246;-6.670;2022-07-24T12:30:16;4.00;;;1.90;;
55915;SDS011;41826;53.246;-6.670;2022-07-24T12:35:28;4.60;;;2.00;;
55915;SDS011;41826;53.246;-6.670;2022-07-24T12:37:55;4.18;;;2.03;;
55915;SDS011;41826;53.246;-6.670;2022-07-24T12:40:24;4.88;;;2.00;;
55915;SDS011;41826;53.246;-6.670;2022-07-24T12:45:42;6.28;;;1.92;;
55915;SDS011;41826;53.246;-6.670;2022-07-24T12:48:09;8.73;;;2.00;;
55915;SDS011;41826;53.246;-6.670;2022-07-24T12:50:36;4.50;;;1.88;;
55915;SDS011;41826;53.246;-6.670;2022-07-24T12:53:05;3.25;;;1.70;;
55915;SDS011;41826;53.246;-6.670;2022-07-24T12:55:35;6.00;;;1.80;;
55915;SDS011;41826;53.246;-6.670;2022-07-24T12:58:02;3.97;;;2.08;;
55915;SDS011;41826;53.246;-6.670;2022-07-24T13:00:31;3.05;;;1.77;;
55915;SDS011;41826;53.246;-6.670;2022-07-24T13:02:57;2.03;;;1.83;;
55915;SDS011;41826;53.246;-6.670;2022-07-24T13:05:35;2.63;;;1.75;;
55915;SDS011;41826;53.246;-6.670;2022-07-24T13:08:16;3.35;;;1.67;;
55915;SDS011;41826;53.246;-6.670;2022-07-24T13:10:47;3.85;;;1.92;;
55915;SDS011;41826;53.246;-6.670;2022-07-24T13:13:12;3.28;;;1.70;;
55915;SDS011;41826;53.246;-6.670;2022-07-24T13:15:38;3.88;;;1.63;;
55915;SDS011;41826;53.246;-6.670;2022-07-24T13:18:03;2.53;;;1.23;;
55915;SDS011;41826;53.246;-6.670;2022-07-24T13:20:32;4.00;;;2.00;;
55915;SDS011;41826;53.246;-6.670;2022-07-24T13:22:57;4.13;;;1.52;;
55915;SDS011;41826;53.246;-6.670;2022-07-24T13:25:28;1.15;;;1.05;;
55915;SDS011;41826;53.246;-6.670;2022-07-24T13:27:54;3.72;;;1.95;;
55915;SDS011;41826;53.246;-6.670;2022-07-24T13:30:19;2.65;;;1.27;;
55915;SDS011;41826;53.246;-6.670;2022-07-24T13:32:44;1.55;;;1.30;;
55915;SDS011;41826;53.246;-6.670;2022-07-24T13:35:10;2.83;;;1.50;;
55915;SDS011;41826;53.246;-6.670;2022-07-24T13:37:35;2.33;;;1.45;;
55915;SDS011;41826;53.246;-6.670;2022-07-24T13:40:01;5.25;;;1.40;;
55915;SDS011;41826;53.246;-6.670;2022-07-24T13:42:31;5.35;;;2.65;;
55915;SDS011;41826;53.246;-6.670;2022-07-24T13:44:57;4.47;;;1.80;;
55915;SDS011;41826;53.246;-6.670;2022-07-24T13:47:22;5.70;;;1.60;;
55915;SDS011;41826;53.246;-6.670;2022-07-24T13:49:48;3.13;;;1.50;;
55915;SDS011;41826;53.246;-6.670;2022-07-24T13:52:16;6.00;;;2.25;;
55915;SDS011;41826;53.246;-6.670;2022-07-24T13:54:42;3.83;;;1.50;;
55915;SDS011;41826;53.246;-6.670;2022-07-24T13:57:07;2.88;;;1.73;;
55915;SDS011;41826;53.246;-6.670;2022-07-24T13:59:33;6.55;;;1.60;;
55915;SDS011;41826;53.246;-6.670;2022-07-24T14:02:02;4.70;;;1.80;;
55915;SDS011;41826;53.246;-6.670;2022-07-24T14:04:27;4.07;;;1.33;;
55915;SDS011;41826;53.246;-6.670;2022-07-24T14:06:52;5.85;;;1.92;;
55915;SDS011;41826;53.246;-6.670;2022-07-24T14:09:18;5.97;;;1.95;;
55915;SDS011;41826;53.246;-6.670;2022-07-24T14:11:44;2.08;;;1.60;;
55915;SDS011;41826;53.246;-6.670;2022-07-24T14:14:10;3.78;;;1.60;;
55915;SDS011;41826;53.246;-6.670;2022-07-24T14:16:35;4.20;;;2.00;;
55915;SDS011;41826;53.246;-6.670;2022-07-24T14:19:02;5.22;;;1.77;;
55915;SDS011;41826;53.246;-6.670;2022-07-24T14:21:27;4.32;;;1.70;;
55915;SDS011;41826;53.246;-6.670;2022-07-24T14:23:55;3.17;;;1.88;;
55915;SDS011;41826;53.246;-6.670;2022-07-24T14:26:20;6.63;;;2.72;;
55915;SDS011;41826;53.246;-6.670;2022-07-24T14:28:46;9.45;;;3.35;;
55915;SDS011;41826;53.246;-6.670;2022-07-24T14:31:11;6.18;;;2.30;;
55915;SDS011;41826;53.246;-6.670;2022-07-24T14:33:38;1.75;;;1.40;;
55915;SDS011;41826;53.246;-6.670;2022-07-24T14:36:03;5.65;;;1.90;;
55915;SDS011;41826;53.246;-6.670;2022-07-24T14:38:30;4.10;;;1.75;;
55915;SDS011;41826;53.246;-6.670;2022-07-24T14:40:55;3.72;;;1.95;;
55915;SDS011;41826;53.246;-6.670;2022-07-24T14:43:20;5.40;;;2.10;;
55915;SDS011;41826;53.246;-6.670;2022-07-24T14:45:46;5.35;;;1.45;;
55915;SDS011;41826;53.246;-6.670;2022-07-24T14:48:11;3.40;;;1.60;;
55915;SDS011;41826;53.246;-6.670;2022-07-24T14:50:38;2.53;;;1.38;;
55915;SDS011;41826;53.246;-6.670;2022-07-24T14:53:03;3.78;;;2.00;;
55915;SDS011;41826;53.246;-6.670;2022-07-24T14:55:29;5.05;;;1.60;;
55915;SDS011;41826;53.246;-6.670;2022-07-24T14:57:54;4.53;;;1.55;;
55915;SDS011;41826;53.246;-6.670;2022-07-24T15:00:20;2.03;;;1.45;;
55915;SDS011;41826;53.246;-6.670;2022-07-24T15:02:45;3.35;;;1.70;;